createdAt,value
2018-01-29T19:10:19.640Z,99289
2018-01-29T19:12:47.321Z,99295
2018-01-29T19:15:14.885Z,99288
2018-01-29T19:17:42.707Z,99289
2018-01-29T19:20:11.119Z,99279
2018-01-29T19:22:38.791Z,99274
2018-01-29T19:25:06.405Z,99262
2018-01-29T19:27:33.972Z,99271
2018-01-29T19:30:02.392Z,99262
2018-01-29T19:32:30.021Z,99273
2018-01-29T19:34:58.443Z,99260
2018-01-29T19:37:26.090Z,99255
2018-01-29T19:39:53.656Z,99266
2018-01-29T19:42:21.268Z,99276
2018-01-29T19:44:49.697Z,99283
2018-01-29T19:47:17.324Z,99272
2018-01-29T19:49:45.697Z,99278
2018-01-29T19:52:14.149Z,99277
2018-01-29T19:54:42.194Z,99277
2018-01-29T19:57:09.827Z,99274
2018-01-29T19:59:38.539Z,99275
2018-01-29T20:02:06.116Z,99276
2018-01-29T20:04:33.777Z,99273
2018-01-29T20:07:02.384Z,99263
2018-01-29T20:09:30.032Z,99272
2018-01-29T20:11:57.675Z,99264
2018-01-29T20:14:25.249Z,99271
2018-01-29T20:16:53.529Z,99284
2018-01-29T20:19:21.167Z,99275
2018-01-29T20:21:48.834Z,99294
2018-01-29T20:24:17.284Z,99299
2018-01-29T20:26:45.108Z,99289
2018-01-29T20:29:12.724Z,99293
2018-01-29T20:31:41.115Z,99281
2018-01-29T20:34:08.741Z,99294
2018-01-29T20:36:36.572Z,99284
2018-01-29T20:39:04.140Z,99286
2018-01-29T20:41:32.585Z,99290
2018-01-29T20:44:00.228Z,99293
2018-01-29T20:46:28.691Z,99294
2018-01-29T20:48:56.313Z,99286
2018-01-29T20:51:24.063Z,99290
2018-01-29T20:53:51.699Z,99286
2018-01-29T20:56:20.135Z,99289
2018-01-29T20:58:47.780Z,99289
2018-01-29T21:01:15.556Z,99290
2018-01-29T21:03:43.224Z,99292
2018-01-29T21:06:10.831Z,99298
2018-01-29T21:08:39.419Z,99300
2018-01-29T21:11:07.837Z,99291
2018-01-29T21:13:35.472Z,99291
2018-01-29T21:16:03.887Z,99304
2018-01-29T21:18:32.403Z,99312
2018-01-29T21:21:00.027Z,99305
2018-01-29T21:23:27.689Z,99297
2018-01-29T21:25:55.326Z,99307
2018-01-29T21:28:22.955Z,99313
2018-01-29T21:30:50.618Z,99310
2018-01-29T21:33:18.201Z,99296
2018-01-29T21:35:47.311Z,99291
2018-01-29T21:38:15.127Z,99293
2018-01-29T21:40:42.773Z,99306
2018-01-29T21:43:10.428Z,99306
2018-01-29T21:46:14.525Z,99306
2018-01-29T21:48:42.160Z,99306
2018-01-29T21:51:10.516Z,99317
2018-01-29T21:53:38.229Z,99326
2018-01-29T21:56:05.859Z,99316
2018-01-29T21:58:33.612Z,99325
2018-01-29T22:01:01.827Z,99308
2018-01-29T22:03:29.430Z,99300
2018-01-29T22:05:57.277Z,99305
2018-01-29T22:08:24.896Z,99315
2018-01-29T22:10:53.357Z,99314
2018-01-29T22:13:20.993Z,99317
2018-01-29T22:15:48.609Z,99318
2018-01-29T22:18:17.309Z,99311
2018-01-29T22:20:44.874Z,99315
2018-01-29T22:23:12.464Z,99324
2018-01-29T22:25:40.041Z,99323
2018-01-29T22:28:07.668Z,99335
2018-01-29T22:30:35.307Z,99325
2018-01-29T22:33:03.640Z,99322
2018-01-29T22:35:31.455Z,99319
2018-01-29T22:37:59.856Z,99327
2018-01-29T22:40:27.491Z,99324
2018-01-29T22:42:55.835Z,99310
2018-01-29T22:45:23.423Z,99326
2018-01-29T22:47:50.995Z,99325
2018-01-29T22:50:19.347Z,99319
2018-01-29T22:52:46.965Z,99331
2018-01-29T22:55:14.533Z,99324
2018-01-29T22:57:42.103Z,99329
2018-01-29T23:00:09.707Z,99332
2018-01-29T23:02:37.329Z,99343
2018-01-29T23:05:04.923Z,99338
2018-01-29T23:07:32.747Z,99347
2018-01-29T23:10:00.351Z,99344
2018-01-29T23:12:27.954Z,99345
2018-01-29T23:14:55.704Z,99337
2018-01-29T23:17:24.098Z,99326
2018-01-29T23:19:51.747Z,99336
2018-01-29T23:22:19.391Z,99326
2018-01-29T23:24:46.960Z,99335
2018-01-29T23:27:15.284Z,99339
2018-01-29T23:29:42.860Z,99345
2018-01-29T23:32:10.453Z,99351
2018-01-29T23:34:38.042Z,99354
2018-01-29T23:37:05.727Z,99356
2018-01-29T23:39:33.438Z,99366
2018-01-29T23:42:01.922Z,99366
2018-01-29T23:44:29.626Z,99365
2018-01-29T23:46:57.218Z,99357
2018-01-29T23:49:24.814Z,99355
2018-01-29T23:51:53.281Z,99351
2018-01-29T23:54:20.861Z,99362
2018-01-29T23:56:49.226Z,99355
2018-01-29T23:59:16.986Z,99350
